Time;durP1;ratioP1;P1;durP2;ratioP2;P2;SDS_P1;SDS_P2;PMS_P1;PMS_P2;Temp;Humidity;BMP_temperature;BMP_pressure;BME280_temperature;BME280_humidity;BME280_pressure;Samples;Min_cycle;Max_cycle;Signal;HPM_P1;HPM_P2
2023/07/07 00:00:26;;;;;;;4.95;3.05;;;;;;;26.62;55.57;101344.06;5054735;28;20506;-59
2023/07/07 00:02:53;;;;;;;4.75;2.00;;;;;;;26.62;55.53;101349.47;5054772;28;20045;-59
2023/07/07 00:05:21;;;;;;;4.63;2.42;;;;;;;26.62;55.72;101344.06;5054603;28;20053;-60
2023/07/07 00:07:51;;;;;;;3.42;2.20;;;;;;;26.62;55.64;101349.47;5054635;28;20045;-59
2023/07/07 00:10:19;;;;;;;4.47;2.35;;;;;;;26.62;55.68;101338.63;5053611;28;20502;-59
2023/07/07 00:12:46;;;;;;;4.55;2.60;;;;;;;26.62;55.67;101332.34;5054500;28;20052;-59
2023/07/07 00:15:14;;;;;;;3.80;2.65;;;;;;;26.61;55.57;101347.75;5054264;28;20510;-59
2023/07/07 00:17:42;;;;;;;3.80;2.90;;;;;;;26.62;55.67;101344.06;5054506;28;20049;-53
2023/07/07 00:20:12;;;;;;;5.63;2.38;;;;;;;26.62;55.68;101348.63;5054542;28;20619;-51
2023/07/07 00:22:40;;;;;;;3.97;2.50;;;;;;;26.62;55.66;101343.19;5053495;28;20056;-52
2023/07/07 00:25:09;;;;;;;3.83;2.70;;;;;;;26.62;55.53;101343.19;5054353;28;20049;-53
2023/07/07 00:27:37;;;;;;;4.05;2.88;;;;;;;26.62;55.63;101354.91;5054211;28;20045;-53
2023/07/07 00:30:06;;;;;;;3.95;2.58;;;;;;;26.63;55.39;101344.91;5052792;28;20407;-53
2023/07/07 00:32:34;;;;;;;5.82;3.15;;;;;;;26.63;55.45;101343.03;5053944;28;20044;-50
2023/07/07 00:35:03;;;;;;;4.10;2.55;;;;;;;26.63;55.50;101343.03;5054198;28;20041;-52
2023/07/07 00:37:30;;;;;;;3.90;2.97;;;;;;;26.63;55.45;101343.03;5054170;28;20392;-53
2023/07/07 00:39:57;;;;;;;3.83;2.30;;;;;;;26.63;55.66;101345.75;5054010;28;20048;-51
2023/07/07 00:42:25;;;;;;;3.15;2.25;;;;;;;26.63;55.73;101343.03;5053956;28;20056;-51
2023/07/07 00:45:05;;;;;;;3.25;2.50;;;;;;;26.63;55.65;101340.31;5053959;28;20045;-52
2023/07/07 00:47:35;;;;;;;4.07;2.80;;;;;;;26.64;55.40;101341.16;5053974;28;20056;-51
2023/07/07 00:50:04;;;;;;;4.45;2.50;;;;;;;26.63;55.48;101343.03;5053476;28;20052;-51
2023/07/07 00:52:32;;;;;;;3.42;2.45;;;;;;;26.63;55.50;101345.75;5053927;28;20048;-51
2023/07/07 00:54:59;;;;;;;3.47;2.42;;;;;;;26.63;55.46;101351.16;5053891;28;20045;-50
2023/07/07 00:57:27;;;;;;;4.43;3.13;;;;;;;26.63;55.44;101351.16;5054019;28;20072;-59
2023/07/07 00:59:54;;;;;;;3.60;2.50;;;;;;;26.63;55.46;101356.59;5052798;28;20060;-59
2023/07/07 01:02:26;;;;;;;3.22;2.40;;;;;;;26.63;55.52;101355.75;5052440;28;20059;-59
2023/07/07 01:04:59;;;;;;;4.80;2.88;;;;;;;26.63;55.52;101356.59;5052906;28;20048;-59
2023/07/07 01:07:36;;;;;;;3.28;2.28;;;;;;;26.63;55.61;101355.75;5052904;28;20053;-53
2023/07/07 01:10:04;;;;;;;4.40;2.90;;;;;;;26.63;55.61;101356.59;5053843;28;20053;-50
2023/07/07 01:12:32;;;;;;;3.83;2.60;;;;;;;26.62;55.67;101351.34;5053810;28;20041;-52
2023/07/07 01:15:01;;;;;;;4.07;2.60;;;;;;;26.62;55.42;101352.19;5052406;28;20053;-51
2023/07/07 01:17:51;;;;;;;4.53;2.88;;;;;;;26.62;55.48;101351.34;5052673;28;20058;-59
2023/07/07 01:20:41;;;;;;;4.70;2.70;;;;;;;26.62;55.61;101360.34;5051593;28;20044;-59
2023/07/07 01:23:39;;;;;;;4.40;2.67;;;;;;;26.63;55.44;101363.91;5053633;28;20052;-59
2023/07/07 01:26:29;;;;;;;2.90;2.13;;;;;;;26.63;55.40;101361.19;5052611;28;20060;-51
2023/07/07 01:29:30;;;;;;;3.38;2.85;;;;;;;26.64;55.43;101354.72;5053380;28;20111;-51
2023/07/07 01:32:06;;;;;;;4.35;2.30;;;;;;;26.63;55.32;101353.88;5052216;28;20048;-51
2023/07/07 01:34:35;;;;;;;4.05;2.67;;;;;;;26.63;55.37;101369.34;5053638;28;20471;-51
2023/07/07 01:37:02;;;;;;;4.47;2.85;;;;;;;26.63;55.47;101372.06;5053628;28;20048;-59
2023/07/07 01:39:30;;;;;;;4.20;2.63;;;;;;;26.63;55.37;101375.63;5053383;28;20045;-59
2023/07/07 01:42:04;;;;;;;5.13;3.00;;;;;;;26.63;55.35;101372.06;5053219;28;20045;-59
2023/07/07 01:44:46;;;;;;;3.47;2.45;;;;;;;26.63;55.35;101372.06;5053361;28;20048;-59
2023/07/07 01:47:14;;;;;;;3.67;2.42;;;;;;;26.63;55.25;101372.91;5053432;28;20056;-59
2023/07/07 01:50:01;;;;;;;3.90;2.85;;;;;;;26.63;55.41;101370.19;5052308;28;20060;-59
2023/07/07 01:52:33;;;;;;;3.60;2.70;;;;;;;26.64;55.34;101373.75;5053308;28;20045;-59
2023/07/07 01:55:10;;;;;;;4.75;2.75;;;;;;;26.63;55.37;101375.63;5051998;28;20057;-59
2023/07/07 01:57:40;;;;;;;3.20;2.40;;;;;;;26.63;55.33;101380.19;5051839;28;20517;-52
2023/07/07 02:00:08;;;;;;;4.40;2.50;;;;;;;26.63;55.28;101364.75;5052502;28;20053;-53
2023/07/07 02:02:43;;;;;;;6.47;2.95;;;;;;;26.63;55.37;101372.91;5059914;28;20391;-52
2023/07/07 02:05:12;;;;;;;3.33;2.55;;;;;;;26.63;55.15;101369.34;5053298;28;20045;-54
2023/07/07 02:07:42;;;;;;;4.03;2.47;;;;;;;26.63;55.20;101372.06;5053507;28;20057;-59
2023/07/07 02:10:09;;;;;;;3.88;2.58;;;;;;;26.63;55.01;101370.19;5051696;28;20057;-59
2023/07/07 02:12:37;;;;;;;4.05;2.83;;;;;;;26.62;55.14;101376.63;5053180;28;20045;-60
2023/07/07 02:15:05;;;;;;;3.58;2.63;;;;;;;26.62;55.15;101379.34;5053145;28;20513;-59
2023/07/07 02:17:32;;;;;;;4.10;2.75;;;;;;;26.62;55.00;101376.63;5052995;28;20053;-59
2023/07/07 02:20:00;;;;;;;3.83;2.72;;;;;;;26.63;55.14;101377.47;5052029;28;20053;-59
2023/07/07 02:22:28;;;;;;;4.88;2.95;;;;;;;26.63;55.24;101383.75;5053198;28;20049;-59
2023/07/07 02:24:55;;;;;;;3.72;2.78;;;;;;;26.62;54.86;101376.63;5051821;28;20624;-59
2023/07/07 02:27:23;;;;;;;4.22;2.88;;;;;;;26.62;55.05;101379.34;5053109;28;20056;-50
2023/07/07 02:29:50;;;;;;;5.68;3.05;;;;;;;26.63;55.17;101394.63;5052850;28;20045;-50
2023/07/07 02:32:17;;;;;;;5.28;2.60;;;;;;;26.63;55.27;101394.63;5052846;28;20052;-51
2023/07/07 02:34:47;;;;;;;3.88;2.53;;;;;;;26.62;55.22;101406.50;5055341;28;20056;-50
2023/07/07 02:37:18;;;;;;;4.18;2.80;;;;;;;26.62;55.12;101403.78;5055595;28;20387;-59
2023/07/07 02:39:46;;;;;;;3.83;2.70;;;;;;;26.62;55.09;101402.94;5056475;28;20048;-59
2023/07/07 02:42:14;;;;;;;4.22;3.13;;;;;;;26.63;55.46;101402.78;5056428;28;20056;-59
2023/07/07 02:44:42;;;;;;;4.57;2.90;;;;;;;26.62;54.99;101409.22;5056695;28;20056;-59
2023/07/07 02:47:09;;;;;;;4.28;2.70;;;;;;;26.65;55.06;101401.75;5056096;28;20380;-51
2023/07/07 02:49:37;;;;;;;5.43;3.30;;;;;;;26.64;55.27;101403.63;5054569;28;20055;-50
2023/07/07 02:52:06;;;;;;;4.25;2.60;;;;;;;26.63;55.09;101408.19;5055289;28;20053;-51
2023/07/07 02:54:35;;;;;;;3.70;2.88;;;;;;;26.65;55.32;101407.19;5054676;28;20406;-50
2023/07/07 02:57:03;;;;;;;3.90;2.72;;;;;;;26.64;55.24;101406.34;5055071;28;20052;-50
2023/07/07 02:59:30;;;;;;;4.07;2.92;;;;;;;26.64;55.32;101409.06;5054591;28;20521;-51
2023/07/07 03:01:58;;;;;;;3.97;2.50;;;;;;;26.62;55.16;101406.50;5056160;28;20466;-51
2023/07/07 03:04:26;;;;;;;3.25;2.55;;;;;;;26.63;55.24;101410.91;5054781;28;20045;-51
2023/07/07 03:06:54;;;;;;;4.10;2.80;;;;;;;26.63;55.16;101415.50;5053860;28;20056;-51
2023/07/07 03:09:22;;;;;;;4.85;2.75;;;;;;;26.64;55.21;101409.06;5054107;28;20072;-51
2023/07/07 03:11:50;;;;;;;4.05;2.90;;;;;;;26.64;55.06;101414.47;5054070;28;20419;-54
2023/07/07 03:14:22;;;;;;;4.25;3.40;;;;;;;26.62;55.21;101411.94;5055197;28;20056;-52
2023/07/07 03:16:51;;;;;;;5.32;3.30;;;;;;;26.64;55.21;101417.19;5053659;28;20056;-52
2023/07/07 03:19:27;;;;;;;6.00;3.35;;;;;;;26.62;55.34;101414.66;5054402;28;20072;-51
2023/07/07 03:22:07;;;;;;;4.57;3.15;;;;;;;26.63;55.39;101421.78;5054441;28;20057;-54
2023/07/07 03:24:53;;;;;;;4.53;2.90;;;;;;;26.63;55.30;101432.66;5053758;28;20052;-52
2023/07/07 03:27:33;;;;;;;4.75;2.92;;;;;;;26.63;55.36;101429.09;5053976;28;20049;-51
2023/07/07 03:30:02;;;;;;;4.47;3.17;;;;;;;26.62;55.48;101438.25;5053738;28;20518;-52
2023/07/07 03:32:40;;;;;;;5.10;3.35;;;;;;;26.63;55.29;101448.94;5053986;28;20057;-53
2023/07/07 03:35:08;;;;;;;4.18;2.80;;;;;;;26.63;55.49;101442.66;5053327;28;20045;-50
2023/07/07 03:37:39;;;;;;;4.22;3.45;;;;;;;26.63;55.29;101442.66;5053874;28;20076;-59
2023/07/07 03:40:09;;;;;;;6.38;3.40;;;;;;;26.62;55.29;101444.53;5053558;28;20053;-59
2023/07/07 03:42:37;;;;;;;4.18;3.35;;;;;;;26.63;55.20;101438.06;5055081;28;20052;-59
2023/07/07 03:45:07;;;;;;;4.72;3.60;;;;;;;26.62;55.29;101447.25;5053859;28;20052;-59
2023/07/07 03:47:35;;;;;;;4.55;3.35;;;;;;;26.61;55.30;101445.53;5037226;28;20395;-60
2023/07/07 03:50:03;;;;;;;5.68;3.40;;;;;;;26.62;55.31;101446.41;5053635;28;20060;-59
2023/07/07 03:52:33;;;;;;;4.68;3.03;;;;;;;26.62;55.43;101447.25;5055434;28;20055;-59
2023/07/07 03:55:02;;;;;;;5.47;3.63;;;;;;;26.62;55.16;101443.69;5053227;28;20435;-59
2023/07/07 03:57:30;;;;;;;5.38;3.92;;;;;;;26.61;55.20;101445.53;5053701;28;20522;-59
2023/07/07 03:59:57;;;;;;;4.25;3.25;;;;;;;26.61;55.22;101434.66;5054988;28;20045;-59
2023/07/07 04:02:24;;;;;;;5.60;3.38;;;;;;;26.60;55.10;101438.41;5053220;28;20049;-59
2023/07/07 04:04:52;;;;;;;4.05;3.15;;;;;;;26.60;55.10;101441.13;5052739;28;20056;-59
2023/07/07 04:07:20;;;;;;;3.20;2.65;;;;;;;26.61;55.17;101442.81;5054418;28;20052;-52
2023/07/07 04:09:47;;;;;;;3.83;3.33;;;;;;;26.61;55.20;101452.81;5054150;28;20061;-51
2023/07/07 04:12:15;;;;;;;4.00;3.45;;;;;;;26.61;55.18;101452.81;5054476;28;20071;-51
2023/07/07 04:14:42;;;;;;;4.28;3.70;;;;;;;26.61;55.05;101455.53;5054392;28;20048;-51
2023/07/07 04:17:09;;;;;;;5.95;4.03;;;;;;;26.60;55.16;101449.25;5054220;28;20048;-52
2023/07/07 04:19:37;;;;;;;3.83;3.10;;;;;;;26.61;55.21;101452.81;5053311;28;20049;-50
2023/07/07 04:22:04;;;;;;;4.80;3.72;;;;;;;26.60;55.03;101465.56;5052469;28;20053;-51
2023/07/07 04:24:32;;;;;;;3.85;2.92;;;;;;;26.60;55.00;101462.84;5053177;28;20376;-51
2023/07/07 04:26:59;;;;;;;5.20;3.40;;;;;;;26.60;55.06;101456.56;5054613;28;20052;-59
2023/07/07 04:29:26;;;;;;;4.55;3.42;;;;;;;26.60;55.02;101471.00;5054449;28;20056;-59
2023/07/07 04:31:53;;;;;;;4.20;3.10;;;;;;;26.60;55.10;101472.84;5054155;28;20048;-59
2023/07/07 04:34:21;;;;;;;3.75;2.80;;;;;;;26.59;55.09;101469.28;5054581;28;20386;-59
2023/07/07 04:36:49;;;;;;;4.25;3.22;;;;;;;26.59;55.12;101480.16;5054370;28;20052;-53
2023/07/07 04:39:16;;;;;;;4.43;3.45;;;;;;;26.59;55.22;101469.28;5053765;28;20516;-51
2023/07/07 04:41:44;;;;;;;3.92;3.20;;;;;;;26.60;55.11;101470.16;5054527;28;20045;-51
2023/07/07 04:44:11;;;;;;;3.50;2.80;;;;;;;26.60;55.02;101460.13;5054105;28;20049;-51
2023/07/07 04:46:39;;;;;;;4.03;2.72;;;;;;;26.60;55.03;101468.28;5053993;28;20053;-59
2023/07/07 04:49:07;;;;;;;5.15;3.47;;;;;;;26.59;55.02;101461.16;5054156;28;20052;-59
2023/07/07 04:51:42;;;;;;;6.03;3.53;;;;;;;26.59;54.96;101474.72;5052443;28;20055;-59
2023/07/07 04:54:13;;;;;;;6.00;3.47;;;;;;;26.59;55.04;101474.72;5054030;28;20049;-60
2023/07/07 04:56:41;;;;;;;5.15;3.17;;;;;;;26.59;54.94;101480.16;5053605;28;20048;-53
2023/07/07 04:59:08;;;;;;;4.55;3.15;;;;;;;26.59;55.00;101477.44;5053435;28;20056;-50
2023/07/07 05:01:36;;;;;;;4.32;2.88;;;;;;;26.60;55.12;101475.56;5053714;28;20059;-51
2023/07/07 05:04:05;;;;;;;5.85;3.25;;;;;;;26.58;55.04;101489.34;5053840;28;20402;-52
2023/07/07 05:06:35;;;;;;;3.75;2.92;;;;;;;26.59;54.96;101485.59;5053277;28;20045;-59
2023/07/07 05:09:03;;;;;;;4.35;3.38;;;;;;;26.60;55.00;101490.00;5053571;28;20528;-59
2023/07/07 05:11:33;;;;;;;3.85;2.97;;;;;;;26.59;54.99;101492.91;5053979;28;20092;-59
2023/07/07 05:14:01;;;;;;;3.50;2.80;;;;;;;26.58;55.10;101494.75;5053178;28;20053;-59
2023/07/07 05:16:35;;;;;;;3.92;3.22;;;;;;;26.59;55.08;101487.47;5053113;28;20049;-59
2023/07/07 05:19:04;;;;;;;3.95;2.72;;;;;;;26.59;55.08;101493.75;5053930;28;20051;-59
2023/07/07 05:21:31;;;;;;;4.88;2.90;;;;;;;26.59;55.13;101496.44;5053178;28;20053;-59
2023/07/07 05:23:59;;;;;;;4.68;2.67;;;;;;;26.61;55.03;101499.00;5053159;28;20049;-59
2023/07/07 05:26:27;;;;;;;4.75;3.17;;;;;;;26.60;55.14;101506.28;5053116;28;20041;-51
2023/07/07 05:28:59;;;;;;;5.38;3.17;;;;;;;26.60;55.27;101500.03;5052392;28;20414;-50
2023/07/07 05:31:27;;;;;;;4.90;3.55;;;;;;;26.60;55.28;101506.28;5053409;28;20053;-50
2023/07/07 05:33:55;;;;;;;5.35;3.35;;;;;;;26.60;55.32;101503.56;5053052;28;20056;-52
2023/07/07 05:36:22;;;;;;;3.75;3.13;;;;;;;26.61;55.41;101513.41;5052926;28;20056;-59
2023/07/07 05:38:50;;;;;;;4.32;3.03;;;;;;;26.61;55.28;101505.28;5053011;28;20052;-59
2023/07/07 05:41:17;;;;;;;3.42;2.85;;;;;;;26.60;55.23;101511.72;5052988;28;20044;-59
2023/07/07 05:43:45;;;;;;;4.07;3.40;;;;;;;26.60;55.35;101514.44;5053775;28;20059;-59
2023/07/07 05:46:14;;;;;;;4.90;3.25;;;;;;;26.61;55.35;101509.84;5053415;28;20041;-51
2023/07/07 05:48:42;;;;;;;3.60;2.92;;;;;;;26.61;55.28;101520.72;5052960;28;20040;-52
2023/07/07 05:51:16;;;;;;;3.58;3.03;;;;;;;26.60;55.43;101519.03;5053326;28;20045;-50
2023/07/07 05:53:43;;;;;;;4.43;3.30;;;;;;;26.60;55.42;101514.44;5051866;28;20063;-51
2023/07/07 05:56:17;;;;;;;4.45;3.17;;;;;;;26.62;55.50;101517.88;5053153;28;20072;-53
2023/07/07 05:58:44;;;;;;;5.53;2.75;;;;;;;26.61;55.31;101515.28;5053438;28;20479;-51
2023/07/07 06:01:13;;;;;;;3.53;3.03;;;;;;;26.62;55.51;101508.88;5053343;28;20053;-53
2023/07/07 06:03:43;;;;;;;3.25;2.65;;;;;;;26.62;55.50;101517.88;5053605;28;20044;-51
2023/07/07 06:06:12;;;;;;;3.50;2.63;;;;;;;26.62;55.49;101517.00;5052622;28;20049;-59
2023/07/07 06:08:40;;;;;;;4.55;3.22;;;;;;;26.62;55.45;101517.00;5054810;28;20511;-59
2023/07/07 06:11:07;;;;;;;4.97;3.05;;;;;;;26.62;55.57;101509.72;5056827;28;20045;-59
2023/07/07 06:13:35;;;;;;;4.80;3.28;;;;;;;26.63;55.56;101510.56;5057106;28;20605;-59
2023/07/07 06:16:05;;;;;;;4.00;3.30;;;;;;;26.65;55.60;101518.53;5056866;28;20041;-51
2023/07/07 06:18:33;;;;;;;4.90;3.70;;;;;;;26.65;55.43;101518.53;5055478;28;20057;-51
2023/07/07 06:21:01;;;;;;;4.53;3.95;;;;;;;26.61;55.62;101516.13;5056418;28;20052;-53
2023/07/07 06:23:30;;;;;;;5.55;4.43;;;;;;;26.60;55.69;101514.44;5056298;28;20045;-54
2023/07/07 06:25:57;;;;;;;6.07;3.85;;;;;;;26.59;55.83;101523.59;5056965;28;20048;-52
2023/07/07 06:28:25;;;;;;;5.45;4.45;;;;;;;26.57;55.79;101519.34;5056817;28;20033;-52
2023/07/07 06:30:53;;;;;;;6.00;4.35;;;;;;;26.55;55.87;101522.22;5056751;28;20052;-53
2023/07/07 06:33:21;;;;;;;6.55;4.18;;;;;;;26.55;56.13;101521.38;5056463;28;20057;-53
2023/07/07 06:35:49;;;;;;;6.82;4.00;;;;;;;26.56;56.12;101520.38;5056741;28;20044;-59
2023/07/07 06:38:17;;;;;;;5.32;3.90;;;;;;;26.56;56.18;101526.66;5056269;28;20064;-59
2023/07/07 06:40:46;;;;;;;9.02;3.75;;;;;;;26.56;55.91;101529.38;5056007;28;20513;-59
2023/07/07 06:43:18;;;;;;;4.60;3.55;;;;;;;26.58;55.85;101532.78;5056773;28;20059;-59
2023/07/07 06:45:53;;;;;;;4.43;3.53;;;;;;;26.59;55.66;101533.63;5056743;28;20041;-60
2023/07/07 06:48:21;;;;;;;5.10;3.80;;;;;;;26.60;55.96;101544.31;5056415;28;20387;-65
2023/07/07 06:50:48;;;;;;;5.45;3.78;;;;;;;26.57;55.71;101541.91;5055801;28;20060;-65
2023/07/07 06:53:16;;;;;;;5.88;4.28;;;;;;;26.56;55.59;101550.25;5055791;28;20041;-65
2023/07/07 06:55:43;;;;;;;7.93;4.43;;;;;;;26.52;55.39;101555.13;5055691;28;20044;-65
2023/07/07 06:58:12;;;;;;;7.13;4.55;;;;;;;26.47;55.55;101546.63;5054505;28;20408;-65
2023/07/07 07:00:43;;;;;;;6.72;4.43;;;;;;;26.42;55.56;101550.84;5055770;28;20051;-65
2023/07/07 07:03:11;;;;;;;5.03;4.50;;;;;;;26.38;55.65;101553.00;5015535;28;20050;-65
2023/07/07 07:05:40;;;;;;;5.43;4.38;;;;;;;26.37;55.84;101545.84;5015541;28;20046;-65
2023/07/07 07:08:07;;;;;;;6.20;4.80;;;;;;;26.34;55.86;101543.47;5053611;28;20059;-61
2023/07/07 07:10:34;;;;;;;4.97;4.25;;;;;;;26.32;56.11;101562.63;5050981;28;20670;-61
2023/07/07 07:13:02;;;;;;;6.82;4.47;;;;;;;26.29;56.02;101554.84;5034134;28;20495;-61
2023/07/07 07:15:30;;;;;;;6.75;4.18;;;;;;;26.25;56.04;101553.44;5035131;28;20050;-61
2023/07/07 07:17:57;;;;;;;5.40;4.28;;;;;;;26.20;56.25;101558.47;5035249;28;20502;-61
2023/07/07 07:20:25;;;;;;;5.85;3.88;;;;;;;26.19;56.11;101558.66;5034779;28;20430;-61
2023/07/07 07:22:52;;;;;;;7.70;4.45;;;;;;;26.18;56.10;101567.81;5035192;28;20052;-61
2023/07/07 07:25:20;;;;;;;6.63;4.32;;;;;;;26.20;56.21;101563.06;5034816;28;20048;-61
2023/07/07 07:27:47;;;;;;;5.05;3.75;;;;;;;26.21;56.30;101570.19;5035089;28;20045;-61
2023/07/07 07:30:15;;;;;;;5.28;3.83;;;;;;;26.22;56.03;101572.75;5034899;28;20076;-61
2023/07/07 07:32:43;;;;;;;4.68;3.42;;;;;;;26.23;56.05;101577.16;5034899;28;20049;-61
2023/07/07 07:35:11;;;;;;;4.50;3.58;;;;;;;26.27;55.83;101569.56;5034789;28;20407;-61
2023/07/07 07:37:39;;;;;;;6.20;3.25;;;;;;;26.29;55.89;101576.53;5034928;28;20049;-58
2023/07/07 07:40:07;;;;;;;5.60;3.25;;;;;;;26.32;55.87;101575.34;5034698;28;20052;-58
2023/07/07 07:42:34;;;;;;;4.78;3.40;;;;;;;26.33;56.02;101577.06;5034798;28;20074;-58
2023/07/07 07:45:01;;;;;;;5.57;3.92;;;;;;;26.33;56.01;101577.94;5033768;28;20076;-57
2023/07/07 07:47:29;;;;;;;6.85;3.65;;;;;;;26.32;55.90;101569.94;5034636;28;20049;-61
2023/07/07 07:49:56;;;;;;;4.32;3.50;;;;;;;26.32;55.98;101575.34;5034631;28;20052;-61
2023/07/07 07:52:23;;;;;;;3.80;2.90;;;;;;;26.34;55.89;101570.63;5034427;28;20045;-61
2023/07/07 07:54:52;;;;;;;4.55;3.40;;;;;;;26.35;56.09;101575.88;5034602;28;20052;-61
2023/07/07 07:57:19;;;;;;;5.35;3.95;;;;;;;26.37;56.33;101581.16;5034359;28;20045;-58
2023/07/07 07:59:47;;;;;;;6.22;3.63;;;;;;;26.35;56.32;101575.88;5034442;28;20116;-57
2023/07/07 08:02:14;;;;;;;6.68;3.70;;;;;;;26.34;56.17;101576.91;5029109;28;20060;-58
2023/07/07 08:04:41;;;;;;;4.60;3.22;;;;;;;26.34;55.92;101576.06;5034447;28;20496;-58
2023/07/07 08:07:10;;;;;;;4.53;3.10;;;;;;;26.32;55.41;101572.63;5042398;28;20045;-61
2023/07/07 08:09:37;;;;;;;5.47;2.92;;;;;;;26.30;54.55;101571.97;5052854;28;20053;-61
2023/07/07 08:12:05;;;;;;;4.55;2.90;;;;;;;26.27;53.68;101573.13;5046644;28;20399;-61
2023/07/07 08:14:32;;;;;;;4.03;2.45;;;;;;;26.24;53.27;101570.72;5034278;28;20045;-61
2023/07/07 08:17:05;;;;;;;5.50;3.22;;;;;;;26.25;53.18;101582.44;5034322;28;20521;-58
2023/07/07 08:19:35;;;;;;;4.32;2.60;;;;;;;26.24;53.20;101575.31;5033932;28;20057;-58
2023/07/07 08:22:05;;;;;;;4.40;2.78;;;;;;;26.23;53.29;101577.16;5033964;28;20052;-57
2023/07/07 08:24:39;;;;;;;6.25;2.90;;;;;;;26.26;53.11;101584.16;5032888;28;20065;-57
2023/07/07 08:27:08;;;;;;;4.25;2.67;;;;;;;26.27;53.08;101580.41;5033982;28;20041;-57
2023/07/07 08:29:38;;;;;;;3.88;2.83;;;;;;;26.29;53.45;101575.66;5033678;28;20738;-57
2023/07/07 08:32:07;;;;;;;4.35;2.90;;;;;;;26.29;53.35;101571.13;5033178;28;20475;-57
2023/07/07 08:34:35;;;;;;;5.00;2.85;;;;;;;26.31;53.27;101579.94;5033772;28;20049;-57
2023/07/07 08:37:21;;;;;;;4.47;2.85;;;;;;;26.31;52.89;101574.50;5033698;28;20041;-61
2023/07/07 08:39:49;;;;;;;3.78;2.80;;;;;;;26.31;52.66;101565.53;5033690;28;20049;-61
2023/07/07 08:42:30;;;;;;;4.70;2.83;;;;;;;26.30;52.41;101578.25;5033566;28;20049;-61
2023/07/07 08:45:00;;;;;;;5.70;2.78;;;;;;;26.31;52.59;101569.06;5033723;28;20045;-61
2023/07/07 08:47:58;;;;;;;4.85;2.90;;;;;;;26.30;52.50;101561.09;5033410;28;20052;-57
2023/07/07 08:50:40;;;;;;;6.35;3.58;;;;;;;26.30;52.25;101564.66;5033565;28;20052;-57
2023/07/07 08:53:22;;;;;;;4.85;2.97;;;;;;;26.32;52.09;101576.19;5033490;28;20049;-58
2023/07/07 08:55:58;;;;;;;4.35;2.85;;;;;;;26.33;51.78;101571.63;5033660;28;20045;-59
2023/07/07 08:58:44;;;;;;;3.92;2.45;;;;;;;26.34;52.09;101579.63;5033288;28;20068;-58
2023/07/07 09:01:33;;;;;;;3.47;2.22;;;;;;;26.34;52.04;101574.19;5033422;28;20046;-57
2023/07/07 09:04:28;;;;;;;4.93;2.67;;;;;;;26.35;51.44;101577.75;5033381;28;20042;-57
2023/07/07 09:07:20;;;;;;;3.40;2.42;;;;;;;26.34;51.03;101567.91;5033095;28;20053;-61
2023/07/07 09:10:11;;;;;;;3.40;2.50;;;;;;;26.34;50.97;101566.06;5032971;28;20041;-61
2023/07/07 09:12:42;;;;;;;5.47;2.75;;;;;;;26.33;51.37;101569.78;5033162;28;20057;-61
2023/07/07 09:15:21;;;;;;;4.15;2.78;;;;;;;26.35;51.71;101572.31;5033271;28;20384;-61
2023/07/07 09:17:53;;;;;;;5.50;3.03;;;;;;;26.34;51.98;101571.47;5033156;28;20045;-58
2023/07/07 09:20:25;;;;;;;3.67;2.47;;;;;;;26.35;51.72;101572.31;5033097;28;20487;-58
2023/07/07 09:23:08;;;;;;;6.28;2.65;;;;;;;26.36;52.47;101557.72;5033096;28;20045;-58
2023/07/07 09:25:44;;;;;;;3.20;2.08;;;;;;;26.35;52.46;101565.03;5032112;28;20083;-58
2023/07/07 09:28:18;;;;;;;5.10;2.67;;;;;;;26.38;53.41;101561.16;5031808;28;20407;-61
2023/07/07 09:30:47;;;;;;;6.25;2.72;;;;;;;26.38;53.81;101563.88;5033345;28;20049;-61
2023/07/07 09:33:19;;;;;;;3.42;2.25;;;;;;;26.39;53.61;101554.72;5031965;28;20526;-61
2023/07/07 09:36:11;;;;;;;3.30;2.40;;;;;;;26.38;53.48;101562.00;5032658;28;20046;-59
2023/07/07 09:39:46;;;;;;;4.60;2.90;;;;;;;26.37;52.26;101562.16;5032514;28;20037;-58
2023/07/07 09:42:38;;;;;;;4.57;2.80;;;;;;;26.37;52.25;101557.59;4958118;28;20055;-58
2023/07/07 09:45:12;;;;;;;3.92;2.58;;;;;;;26.38;52.45;101558.44;4958324;28;20147;-58
2023/07/07 09:48:01;;;;;;;4.15;2.90;;;;;;;26.37;52.82;101557.59;4996962;28;20057;-60
2023/07/07 09:50:45;;;;;;;4.47;2.60;;;;;;;26.37;52.54;101557.59;5022482;28;20045;-61
2023/07/07 09:53:19;;;;;;;4.85;2.65;;;;;;;26.40;53.12;101561.81;5036728;28;20052;-61
2023/07/07 09:55:52;;;;;;;4.00;2.53;;;;;;;26.42;53.24;101567.13;5036725;28;20045;-59
2023/07/07 09:58:32;;;;;;;4.05;2.45;;;;;;;26.43;53.14;101569.66;5036603;28;20760;-58
2023/07/07 10:01:02;;;;;;;4.50;2.83;;;;;;;26.44;52.83;101562.38;5036831;28;20049;-58
2023/07/07 10:03:36;;;;;;;4.30;2.63;;;;;;;26.45;53.13;101561.38;5036647;28;20046;-58
2023/07/07 10:06:12;;;;;;;4.40;3.00;;;;;;;26.46;53.26;101563.94;5036578;28;20056;-61
2023/07/07 10:08:39;;;;;;;4.07;2.70;;;;;;;26.48;52.79;101563.78;5036223;28;20049;-60
2023/07/07 10:11:40;;;;;;;5.60;3.05;;;;;;;26.50;52.54;101564.47;5036481;28;20053;-60
2023/07/07 10:14:15;;;;;;;4.03;2.83;;;;;;;26.52;52.20;101565.16;5034957;28;20068;-60
2023/07/07 10:16:56;;;;;;;4.38;2.95;;;;;;;26.54;51.99;101565.84;5036412;28;20044;-60
2023/07/07 10:19:24;;;;;;;4.47;2.95;;;;;;;26.55;51.62;101560.25;5036187;28;20404;-60
2023/07/07 10:21:52;;;;;;;4.05;2.67;;;;;;;26.57;51.84;101566.34;5051207;28;20045;-61
2023/07/07 10:24:20;;;;;;;4.30;2.60;;;;;;;26.59;51.69;101567.06;5056056;28;20049;-61
2023/07/07 10:26:48;;;;;;;4.95;2.70;;;;;;;26.59;51.75;101566.22;5041713;28;20041;-58
2023/07/07 10:29:21;;;;;;;3.90;2.75;;;;;;;26.61;51.14;101564.19;5036138;28;20045;-58
2023/07/07 10:31:51;;;;;;;3.80;2.80;;;;;;;26.62;50.91;101558.59;5036401;28;20423;-58
2023/07/07 10:34:24;;;;;;;5.15;2.70;;;;;;;26.64;50.93;101553.00;5036047;28;20045;-58
2023/07/07 10:36:54;;;;;;;4.85;2.72;;;;;;;26.65;50.80;101551.97;5036222;28;20063;-58
2023/07/07 10:39:23;;;;;;;4.85;2.72;;;;;;;26.67;51.05;101552.69;5035972;28;20053;-58
2023/07/07 10:41:51;;;;;;;5.32;2.95;;;;;;;26.66;51.59;101552.81;5036168;28;20061;-58
2023/07/07 10:44:18;;;;;;;4.63;3.00;;;;;;;26.66;51.65;101561.84;5035773;28;20045;-58
2023/07/07 10:46:46;;;;;;;3.80;2.60;;;;;;;26.68;51.54;101558.97;5036092;28;20396;-58
2023/07/07 10:49:16;;;;;;;4.13;2.63;;;;;;;26.69;51.36;101555.22;5035775;28;20053;-58
2023/07/07 10:52:11;;;;;;;4.00;2.65;;;;;;;26.71;51.11;101550.50;5035747;28;20072;-58
2023/07/07 10:55:05;;;;;;;3.47;2.60;;;;;;;26.72;51.13;101554.91;5034815;28;20053;-58
2023/07/07 10:57:52;;;;;;;4.13;2.75;;;;;;;26.72;51.38;101552.19;5035706;28;20388;-60
2023/07/07 11:00:33;;;;;;;4.15;2.85;;;;;;;26.72;51.16;101550.31;5035540;28;20049;-61
2023/07/07 11:03:10;;;;;;;4.57;3.03;;;;;;;26.74;51.29;101552.84;5055521;28;20052;-61
2023/07/07 11:06:34;;;;;;;3.83;2.28;;;;;;;26.74;51.72;101547.41;5053690;28;20502;-54
2023/07/07 11:09:02;;;;;;;4.65;2.83;;;;;;;26.73;51.92;101548.44;5055024;28;20045;-53
2023/07/07 11:11:53;;;;;;;4.05;2.67;;;;;;;26.72;52.03;101536.72;5054835;28;20690;-53
2023/07/07 11:14:23;;;;;;;4.47;2.58;;;;;;;26.73;52.43;101545.72;5054751;28;20057;-52
2023/07/07 11:17:29;;;;;;;4.05;2.70;;;;;;;26.71;52.51;101543.19;5054831;28;20040;-61
2023/07/07 11:19:56;;;;;;;3.60;2.35;;;;;;;26.71;52.85;101543.19;5055258;28;20048;-61
2023/07/07 11:22:52;;;;;;;3.72;2.22;;;;;;;26.71;52.92;101536.91;5054715;28;20053;-61
2023/07/07 11:25:23;;;;;;;4.50;2.92;;;;;;;26.70;53.17;101535.19;5054969;28;20049;-61
2023/07/07 11:27:59;;;;;;;3.97;2.90;;;;;;;26.69;53.26;101531.63;5054711;28;20103;-54
2023/07/07 11:30:34;;;;;;;3.88;2.58;;;;;;;26.69;53.45;101530.78;5054916;28;20049;-53
2023/07/07 11:33:07;;;;;;;4.88;2.60;;;;;;;26.70;53.32;101535.19;5054984;28;20403;-53
2023/07/07 11:35:53;;;;;;;3.97;2.85;;;;;;;26.69;53.58;101528.91;5054746;28;20045;-53
2023/07/07 11:38:35;;;;;;;3.58;2.55;;;;;;;26.69;53.51;101537.06;5054714;28;20045;-61
2023/07/07 11:41:11;;;;;;;4.95;3.00;;;;;;;26.69;53.74;101541.63;5054452;28;20395;-61
2023/07/07 11:43:38;;;;;;;5.00;2.78;;;;;;;26.69;53.81;101537.06;5054697;28;20049;-61
2023/07/07 11:46:20;;;;;;;4.30;2.45;;;;;;;26.69;53.86;101539.75;5054272;28;20041;-52